sensor_id;sensor_type;location;lat;lon;timestamp;temperature;humidity
296;DHT22;132;48.770;9.200;2022-07-06T00:02:09;19.00;1.00
296;DHT22;132;48.770;9.200;2022-07-06T00:04:36;18.90;1.00
296;DHT22;132;48.770;9.200;2022-07-06T00:07:02;18.90;1.00
296;DHT22;132;48.770;9.200;2022-07-06T00:09:29;18.90;1.00
296;DHT22;132;48.770;9.200;2022-07-06T00:11:55;18.90;1.00
296;DHT22;132;48.770;9.200;2022-07-06T00:14:22;18.80;1.00
296;DHT22;132;48.770;9.200;2022-07-06T00:16:48;18.80;1.00
296;DHT22;132;48.770;9.200;2022-07-06T00:19:14;18.80;1.00
296;DHT22;132;48.770;9.200;2022-07-06T00:21:41;18.70;1.00
296;DHT22;132;48.770;9.200;2022-07-06T00:24:07;18.70;1.00
296;DHT22;132;48.770;9.200;2022-07-06T00:26:34;18.60;1.00
296;DHT22;132;48.770;9.200;2022-07-06T00:29:00;18.60;1.00
296;DHT22;132;48.770;9.200;2022-07-06T00:31:27;18.50;1.00
296;DHT22;132;48.770;9.200;2022-07-06T00:33:53;18.50;1.00
296;DHT22;132;48.770;9.200;2022-07-06T00:36:19;18.50;1.00
296;DHT22;132;48.770;9.200;2022-07-06T00:38:46;18.50;1.00
296;DHT22;132;48.770;9.200;2022-07-06T00:41:13;18.50;1.00
296;DHT22;132;48.770;9.200;2022-07-06T00:44:08;18.50;1.00
296;DHT22;132;48.770;9.200;2022-07-06T00:46:36;18.40;1.00
296;DHT22;132;48.770;9.200;2022-07-06T00:49:02;18.40;1.00
296;DHT22;132;48.770;9.200;2022-07-06T00:51:30;18.40;1.00
296;DHT22;132;48.770;9.200;2022-07-06T00:54:03;18.40;1.00
296;DHT22;132;48.770;9.200;2022-07-06T00:56:31;18.40;1.00
296;DHT22;132;48.770;9.200;2022-07-06T00:59:00;18.60;1.00
296;DHT22;132;48.770;9.200;2022-07-06T01:01:26;18.30;1.00
296;DHT22;132;48.770;9.200;2022-07-06T01:03:52;18.30;1.00
296;DHT22;132;48.770;9.200;2022-07-06T01:06:19;18.30;1.00
296;DHT22;132;48.770;9.200;2022-07-06T01:08:46;18.30;1.00
296;DHT22;132;48.770;9.200;2022-07-06T01:11:13;18.30;1.00
296;DHT22;132;48.770;9.200;2022-07-06T01:13:40;18.30;1.00
296;DHT22;132;48.770;9.200;2022-07-06T01:16:07;18.20;1.00
296;DHT22;132;48.770;9.200;2022-07-06T01:18:33;18.20;1.00
296;DHT22;132;48.770;9.200;2022-07-06T01:21:13;18.20;1.00
296;DHT22;132;48.770;9.200;2022-07-06T01:23:46;18.20;1.00
296;DHT22;132;48.770;9.200;2022-07-06T01:26:17;18.10;1.00
296;DHT22;132;48.770;9.200;2022-07-06T01:28:46;18.10;1.00
296;DHT22;132;48.770;9.200;2022-07-06T01:31:18;18.10;1.00
296;DHT22;132;48.770;9.200;2022-07-06T01:33:45;18.10;1.00
296;DHT22;132;48.770;9.200;2022-07-06T01:36:11;18.00;1.00
296;DHT22;132;48.770;9.200;2022-07-06T01:38:55;18.00;1.00
296;DHT22;132;48.770;9.200;2022-07-06T01:41:24;18.00;1.00
296;DHT22;132;48.770;9.200;2022-07-06T01:43:51;17.90;1.00
296;DHT22;132;48.770;9.200;2022-07-06T01:46:19;17.90;1.00
296;DHT22;132;48.770;9.200;2022-07-06T01:48:46;17.90;1.00
296;DHT22;132;48.770;9.200;2022-07-06T01:51:13;17.90;1.00
296;DHT22;132;48.770;9.200;2022-07-06T01:53:42;17.80;1.00
296;DHT22;132;48.770;9.200;2022-07-06T01:56:09;17.80;1.00
296;DHT22;132;48.770;9.200;2022-07-06T01:58:36;17.70;1.00
296;DHT22;132;48.770;9.200;2022-07-06T02:01:11;17.70;1.00
296;DHT22;132;48.770;9.200;2022-07-06T02:03:39;17.60;1.00
296;DHT22;132;48.770;9.200;2022-07-06T02:06:07;17.60;1.00
296;DHT22;132;48.770;9.200;2022-07-06T02:08:34;17.60;1.00
296;DHT22;132;48.770;9.200;2022-07-06T02:11:03;17.50;1.00
296;DHT22;132;48.770;9.200;2022-07-06T02:13:30;17.50;1.00
296;DHT22;132;48.770;9.200;2022-07-06T02:15:57;17.50;1.00
296;DHT22;132;48.770;9.200;2022-07-06T02:18:24;17.50;1.00
296;DHT22;132;48.770;9.200;2022-07-06T02:20:50;17.40;1.00
296;DHT22;132;48.770;9.200;2022-07-06T02:23:16;17.40;1.00
296;DHT22;132;48.770;9.200;2022-07-06T02:25:43;17.40;1.00
296;DHT22;132;48.770;9.200;2022-07-06T02:28:10;17.30;1.00
296;DHT22;132;48.770;9.200;2022-07-06T02:30:36;17.30;1.00
296;DHT22;132;48.770;9.200;2022-07-06T02:33:03;17.40;1.00
296;DHT22;132;48.770;9.200;2022-07-06T02:35:29;17.20;1.00
296;DHT22;132;48.770;9.200;2022-07-06T02:37:56;17.20;1.00
296;DHT22;132;48.770;9.200;2022-07-06T02:40:22;17.20;1.00
296;DHT22;132;48.770;9.200;2022-07-06T02:42:48;17.10;1.00
296;DHT22;132;48.770;9.200;2022-07-06T02:45:15;17.10;1.00
296;DHT22;132;48.770;9.200;2022-07-06T02:47:42;17.10;1.00
296;DHT22;132;48.770;9.200;2022-07-06T02:50:09;17.10;1.00
296;DHT22;132;48.770;9.200;2022-07-06T02:52:35;17.10;1.00
296;DHT22;132;48.770;9.200;2022-07-06T02:55:04;17.00;1.00
296;DHT22;132;48.770;9.200;2022-07-06T02:57:30;17.00;1.00
296;DHT22;132;48.770;9.200;2022-07-06T02:59:57;17.00;1.00
296;DHT22;132;48.770;9.200;2022-07-06T03:02:23;17.20;1.00
296;DHT22;132;48.770;9.200;2022-07-06T03:04:50;16.90;1.00
296;DHT22;132;48.770;9.200;2022-07-06T03:07:17;16.90;1.00
296;DHT22;132;48.770;9.200;2022-07-06T03:09:44;16.90;1.00
296;DHT22;132;48.770;9.200;2022-07-06T03:12:11;16.80;1.00
296;DHT22;132;48.770;9.200;2022-07-06T03:14:38;16.80;1.00
296;DHT22;132;48.770;9.200;2022-07-06T03:17:05;16.80;1.00
296;DHT22;132;48.770;9.200;2022-07-06T03:19:31;16.80;1.00
296;DHT22;132;48.770;9.200;2022-07-06T03:21:58;16.70;1.00
296;DHT22;132;48.770;9.200;2022-07-06T03:24:25;16.70;1.00
296;DHT22;132;48.770;9.200;2022-07-06T03:26:51;16.70;1.00
296;DHT22;132;48.770;9.200;2022-07-06T03:29:18;16.70;1.00
296;DHT22;132;48.770;9.200;2022-07-06T03:31:47;16.60;1.00
296;DHT22;132;48.770;9.200;2022-07-06T03:34:14;16.80;1.00
296;DHT22;132;48.770;9.200;2022-07-06T03:36:40;16.60;1.00
296;DHT22;132;48.770;9.200;2022-07-06T03:39:08;16.60;1.00
296;DHT22;132;48.770;9.200;2022-07-06T03:41:37;16.60;1.00
296;DHT22;132;48.770;9.200;2022-07-06T03:44:04;16.60;1.00
296;DHT22;132;48.770;9.200;2022-07-06T03:46:31;16.60;1.00
296;DHT22;132;48.770;9.200;2022-07-06T03:48:58;16.60;1.00
296;DHT22;132;48.770;9.200;2022-07-06T03:51:24;16.60;1.00
296;DHT22;132;48.770;9.200;2022-07-06T03:53:52;16.60;1.00
296;DHT22;132;48.770;9.200;2022-07-06T03:56:19;16.60;1.00
296;DHT22;132;48.770;9.200;2022-07-06T03:58:57;16.60;1.00
296;DHT22;132;48.770;9.200;2022-07-06T04:01:24;16.60;1.00
296;DHT22;132;48.770;9.200;2022-07-06T04:03:51;16.60;1.00
296;DHT22;132;48.770;9.200;2022-07-06T04:06:18;16.60;1.00
296;DHT22;132;48.770;9.200;2022-07-06T04:08:44;16.60;1.00
296;DHT22;132;48.770;9.200;2022-07-06T04:11:11;16.60;1.00
296;DHT22;132;48.770;9.200;2022-07-06T04:13:37;16.60;1.00
296;DHT22;132;48.770;9.200;2022-07-06T04:16:06;16.60;1.00
296;DHT22;132;48.770;9.200;2022-07-06T04:18:33;16.60;1.00
296;DHT22;132;48.770;9.200;2022-07-06T04:21:00;16.60;1.00
296;DHT22;132;48.770;9.200;2022-07-06T04:23:29;16.60;1.00
296;DHT22;132;48.770;9.200;2022-07-06T04:25:56;16.60;1.00
296;DHT22;132;48.770;9.200;2022-07-06T04:28:24;16.70;1.00
296;DHT22;132;48.770;9.200;2022-07-06T04:30:51;16.70;1.00
296;DHT22;132;48.770;9.200;2022-07-06T04:33:21;16.70;1.00
296;DHT22;132;48.770;9.200;2022-07-06T04:35:49;16.70;1.00
296;DHT22;132;48.770;9.200;2022-07-06T04:38:16;16.80;1.00
296;DHT22;132;48.770;9.200;2022-07-06T04:40:44;16.70;1.00
296;DHT22;132;48.770;9.200;2022-07-06T04:43:14;16.80;1.00
296;DHT22;132;48.770;9.200;2022-07-06T04:45:43;16.80;1.00
296;DHT22;132;48.770;9.200;2022-07-06T04:48:10;16.80;1.00
296;DHT22;132;48.770;9.200;2022-07-06T04:50:37;16.80;1.00
296;DHT22;132;48.770;9.200;2022-07-06T04:53:06;16.80;1.00
296;DHT22;132;48.770;9.200;2022-07-06T04:55:34;16.80;1.00
296;DHT22;132;48.770;9.200;2022-07-06T04:58:01;16.90;1.00
296;DHT22;132;48.770;9.200;2022-07-06T05:00:27;16.90;1.00
296;DHT22;132;48.770;9.200;2022-07-06T05:02:54;16.90;1.00
296;DHT22;132;48.770;9.200;2022-07-06T05:05:25;16.90;1.00
296;DHT22;132;48.770;9.200;2022-07-06T05:07:51;16.90;1.00
296;DHT22;132;48.770;9.200;2022-07-06T05:10:19;17.00;1.00
296;DHT22;132;48.770;9.200;2022-07-06T05:12:50;17.00;1.00
296;DHT22;132;48.770;9.200;2022-07-06T05:15:17;17.00;1.00
296;DHT22;132;48.770;9.200;2022-07-06T05:17:44;17.10;1.00
296;DHT22;132;48.770;9.200;2022-07-06T05:20:11;17.10;1.00
296;DHT22;132;48.770;9.200;2022-07-06T05:22:41;17.10;1.00
296;DHT22;132;48.770;9.200;2022-07-06T05:25:08;17.20;1.00
296;DHT22;132;48.770;9.200;2022-07-06T05:27:35;17.20;1.00
296;DHT22;132;48.770;9.200;2022-07-06T05:30:02;17.20;1.00
296;DHT22;132;48.770;9.200;2022-07-06T05:32:30;17.20;1.00
296;DHT22;132;48.770;9.200;2022-07-06T05:34:57;17.20;1.00
296;DHT22;132;48.770;9.200;2022-07-06T05:37:23;17.30;1.00
296;DHT22;132;48.770;9.200;2022-07-06T05:39:50;17.40;1.00
296;DHT22;132;48.770;9.200;2022-07-06T05:42:17;17.40;1.00
296;DHT22;132;48.770;9.200;2022-07-06T05:44:45;17.50;1.00
296;DHT22;132;48.770;9.200;2022-07-06T05:47:13;17.50;1.00
296;DHT22;132;48.770;9.200;2022-07-06T05:49:58;17.60;1.00
296;DHT22;132;48.770;9.200;2022-07-06T05:53:00;17.60;1.00
296;DHT22;132;48.770;9.200;2022-07-06T05:55:28;17.60;1.00
296;DHT22;132;48.770;9.200;2022-07-06T05:57:57;17.60;1.00
296;DHT22;132;48.770;9.200;2022-07-06T06:00:27;17.60;1.00
296;DHT22;132;48.770;9.200;2022-07-06T06:02:58;17.70;1.00
296;DHT22;132;48.770;9.200;2022-07-06T06:05:25;17.70;1.00
296;DHT22;132;48.770;9.200;2022-07-06T06:07:56;17.80;1.00
296;DHT22;132;48.770;9.200;2022-07-06T06:10:25;17.80;1.00
296;DHT22;132;48.770;9.200;2022-07-06T06:12:55;17.70;1.00
296;DHT22;132;48.770;9.200;2022-07-06T06:15:21;17.70;1.00
296;DHT22;132;48.770;9.200;2022-07-06T06:17:48;17.80;1.00
296;DHT22;132;48.770;9.200;2022-07-06T06:20:15;17.90;1.00
296;DHT22;132;48.770;9.200;2022-07-06T06:22:52;17.90;1.00
296;DHT22;132;48.770;9.200;2022-07-06T06:25:35;18.00;1.00
296;DHT22;132;48.770;9.200;2022-07-06T06:28:07;18.00;1.00
296;DHT22;132;48.770;9.200;2022-07-06T06:30:34;18.10;1.00
296;DHT22;132;48.770;9.200;2022-07-06T06:33:13;18.10;1.00
296;DHT22;132;48.770;9.200;2022-07-06T06:35:47;18.20;1.00
296;DHT22;132;48.770;9.200;2022-07-06T06:38:14;18.30;1.00
296;DHT22;132;48.770;9.200;2022-07-06T06:40:41;18.40;1.00
296;DHT22;132;48.770;9.200;2022-07-06T06:43:08;18.40;1.00
296;DHT22;132;48.770;9.200;2022-07-06T06:45:40;18.30;1.00
296;DHT22;132;48.770;9.200;2022-07-06T06:48:07;18.30;1.00
296;DHT22;132;48.770;9.200;2022-07-06T06:50:33;18.10;1.00
296;DHT22;132;48.770;9.200;2022-07-06T06:53:00;18.00;1.00
296;DHT22;132;48.770;9.200;2022-07-06T06:55:26;18.00;1.00
296;DHT22;132;48.770;9.200;2022-07-06T06:57:52;18.00;1.00
296;DHT22;132;48.770;9.200;2022-07-06T07:00:19;18.10;1.00
296;DHT22;132;48.770;9.200;2022-07-06T07:02:45;18.20;1.00
296;DHT22;132;48.770;9.200;2022-07-06T07:05:13;18.30;1.00
296;DHT22;132;48.770;9.200;2022-07-06T07:07:40;18.40;1.00
296;DHT22;132;48.770;9.200;2022-07-06T07:10:06;18.50;1.00
296;DHT22;132;48.770;9.200;2022-07-06T07:12:33;18.60;1.00
296;DHT22;132;48.770;9.200;2022-07-06T07:15:00;18.60;1.00
296;DHT22;132;48.770;9.200;2022-07-06T07:17:27;18.70;1.00
296;DHT22;132;48.770;9.200;2022-07-06T07:19:53;18.70;1.00
296;DHT22;132;48.770;9.200;2022-07-06T07:22:22;18.70;1.00
296;DHT22;132;48.770;9.200;2022-07-06T07:24:48;18.80;1.00
296;DHT22;132;48.770;9.200;2022-07-06T07:27:14;18.90;1.00
296;DHT22;132;48.770;9.200;2022-07-06T07:29:41;18.90;1.00
296;DHT22;132;48.770;9.200;2022-07-06T07:32:07;19.00;1.00
296;DHT22;132;48.770;9.200;2022-07-06T07:34:33;19.10;1.00
296;DHT22;132;48.770;9.200;2022-07-06T07:37:00;19.20;1.00
296;DHT22;132;48.770;9.200;2022-07-06T07:39:26;19.20;1.00
296;DHT22;132;48.770;9.200;2022-07-06T07:41:52;19.10;1.00
296;DHT22;132;48.770;9.200;2022-07-06T07:44:19;19.20;1.00
296;DHT22;132;48.770;9.200;2022-07-06T07:46:45;19.30;1.00
296;DHT22;132;48.770;9.200;2022-07-06T07:49:11;19.50;1.00
296;DHT22;132;48.770;9.200;2022-07-06T07:51:38;20.00;1.00
296;DHT22;132;48.770;9.200;2022-07-06T07:54:05;19.30;1.00
296;DHT22;132;48.770;9.200;2022-07-06T07:56:32;19.40;1.00
296;DHT22;132;48.770;9.200;2022-07-06T07:58:58;19.30;1.00
296;DHT22;132;48.770;9.200;2022-07-06T08:01:29;19.40;1.00
296;DHT22;132;48.770;9.200;2022-07-06T08:03:55;19.40;1.00
296;DHT22;132;48.770;9.200;2022-07-06T08:06:21;19.50;1.00
296;DHT22;132;48.770;9.200;2022-07-06T08:08:48;19.60;1.00
296;DHT22;132;48.770;9.200;2022-07-06T08:11:14;19.60;1.00
296;DHT22;132;48.770;9.200;2022-07-06T08:13:41;19.60;1.00
296;DHT22;132;48.770;9.200;2022-07-06T08:16:08;19.60;1.00
296;DHT22;132;48.770;9.200;2022-07-06T08:18:36;19.60;1.00
296;DHT22;132;48.770;9.200;2022-07-06T08:21:03;19.70;1.00
296;DHT22;132;48.770;9.200;2022-07-06T08:23:30;19.80;1.00
296;DHT22;132;48.770;9.200;2022-07-06T08:25:56;19.90;1.00
296;DHT22;132;48.770;9.200;2022-07-06T08:28:22;19.90;1.00
296;DHT22;132;48.770;9.200;2022-07-06T08:30:49;19.90;1.00
296;DHT22;132;48.770;9.200;2022-07-06T08:33:15;19.90;1.00
296;DHT22;132;48.770;9.200;2022-07-06T08:35:42;20.00;1.00
296;DHT22;132;48.770;9.200;2022-07-06T08:38:08;20.10;1.00
296;DHT22;132;48.770;9.200;2022-07-06T08:40:35;20.20;1.00
296;DHT22;132;48.770;9.200;2022-07-06T08:43:04;20.30;1.00
296;DHT22;132;48.770;9.200;2022-07-06T08:45:33;20.40;1.00
296;DHT22;132;48.770;9.200;2022-07-06T08:48:05;20.50;1.00
296;DHT22;132;48.770;9.200;2022-07-06T08:50:33;20.50;1.00
296;DHT22;132;48.770;9.200;2022-07-06T08:53:00;20.50;1.00
296;DHT22;132;48.770;9.200;2022-07-06T08:55:27;20.60;1.00
296;DHT22;132;48.770;9.200;2022-07-06T08:57:55;20.70;1.00
296;DHT22;132;48.770;9.200;2022-07-06T09:00:23;20.60;1.00
296;DHT22;132;48.770;9.200;2022-07-06T09:02:51;20.70;1.00
296;DHT22;132;48.770;9.200;2022-07-06T09:05:22;20.70;1.00
296;DHT22;132;48.770;9.200;2022-07-06T09:07:52;20.80;1.00
296;DHT22;132;48.770;9.200;2022-07-06T09:10:20;20.90;1.00
296;DHT22;132;48.770;9.200;2022-07-06T09:12:48;20.90;1.00
296;DHT22;132;48.770;9.200;2022-07-06T09:15:15;20.90;1.00
296;DHT22;132;48.770;9.200;2022-07-06T09:17:42;20.90;1.00
296;DHT22;132;48.770;9.200;2022-07-06T09:20:11;21.00;1.00
296;DHT22;132;48.770;9.200;2022-07-06T09:22:38;21.00;1.00
296;DHT22;132;48.770;9.200;2022-07-06T09:25:13;21.10;1.00
296;DHT22;132;48.770;9.200;2022-07-06T09:27:40;21.20;1.00
296;DHT22;132;48.770;9.200;2022-07-06T09:30:08;21.20;1.00
296;DHT22;132;48.770;9.200;2022-07-06T09:32:49;21.30;1.00
296;DHT22;132;48.770;9.200;2022-07-06T09:40:26;21.60;1.00
296;DHT22;132;48.770;9.200;2022-07-06T09:43:14;21.80;1.00
296;DHT22;132;48.770;9.200;2022-07-06T09:45:46;21.80;1.00
296;DHT22;132;48.770;9.200;2022-07-06T09:48:16;21.80;1.00
296;DHT22;132;48.770;9.200;2022-07-06T09:50:54;21.80;1.00
296;DHT22;132;48.770;9.200;2022-07-06T09:53:22;21.90;1.00
296;DHT22;132;48.770;9.200;2022-07-06T09:55:51;21.90;1.00
296;DHT22;132;48.770;9.200;2022-07-06T09:58:19;21.70;1.00
296;DHT22;132;48.770;9.200;2022-07-06T10:00:46;21.60;1.00
296;DHT22;132;48.770;9.200;2022-07-06T10:03:14;21.80;1.00
296;DHT22;132;48.770;9.200;2022-07-06T10:05:44;21.70;1.00
296;DHT22;132;48.770;9.200;2022-07-06T10:08:14;21.80;1.00
296;DHT22;132;48.770;9.200;2022-07-06T10:10:41;21.90;1.00
296;DHT22;132;48.770;9.200;2022-07-06T10:13:09;22.00;1.00
296;DHT22;132;48.770;9.200;2022-07-06T10:15:38;22.10;1.00
296;DHT22;132;48.770;9.200;2022-07-06T10:18:06;22.20;1.00
296;DHT22;132;48.770;9.200;2022-07-06T10:20:35;22.30;1.00
296;DHT22;132;48.770;9.200;2022-07-06T10:23:07;22.40;1.00
296;DHT22;132;48.770;9.200;2022-07-06T10:25:34;22.50;1.00
296;DHT22;132;48.770;9.200;2022-07-06T10:28:01;22.40;1.00
296;DHT22;132;48.770;9.200;2022-07-06T10:30:28;22.50;1.00
296;DHT22;132;48.770;9.200;2022-07-06T10:32:56;22.40;1.00
296;DHT22;132;48.770;9.200;2022-07-06T10:35:24;22.40;1.00
296;DHT22;132;48.770;9.200;2022-07-06T10:38:07;22.40;1.00
296;DHT22;132;48.770;9.200;2022-07-06T10:40:41;22.10;1.00
296;DHT22;132;48.770;9.200;2022-07-06T10:43:42;21.80;1.00
296;DHT22;132;48.770;9.200;2022-07-06T10:46:11;21.70;1.00
296;DHT22;132;48.770;9.200;2022-07-06T10:48:39;21.90;1.00
296;DHT22;132;48.770;9.200;2022-07-06T10:51:06;22.00;1.00
296;DHT22;132;48.770;9.200;2022-07-06T10:53:37;22.20;1.00
296;DHT22;132;48.770;9.200;2022-07-06T10:56:08;22.30;1.00
296;DHT22;132;48.770;9.200;2022-07-06T10:58:50;22.20;1.00
296;DHT22;132;48.770;9.200;2022-07-06T11:01:22;22.20;1.00
296;DHT22;132;48.770;9.200;2022-07-06T11:06:21;22.50;1.00
296;DHT22;132;48.770;9.200;2022-07-06T11:14:07;22.50;1.00
296;DHT22;132;48.770;9.200;2022-07-06T11:16:36;22.50;1.00
296;DHT22;132;48.770;9.200;2022-07-06T11:19:14;22.70;1.00
296;DHT22;132;48.770;9.200;2022-07-06T11:24:16;22.80;1.00
296;DHT22;132;48.770;9.200;2022-07-06T11:26:44;23.00;1.00
296;DHT22;132;48.770;9.200;2022-07-06T11:29:13;22.90;1.00
296;DHT22;132;48.770;9.200;2022-07-06T11:31:42;22.60;1.00
296;DHT22;132;48.770;9.200;2022-07-06T11:34:10;22.50;1.00
296;DHT22;132;48.770;9.200;2022-07-06T11:36:37;22.40;1.00
296;DHT22;132;48.770;9.200;2022-07-06T11:39:04;22.50;1.00
296;DHT22;132;48.770;9.200;2022-07-06T11:41:34;22.80;1.00
296;DHT22;132;48.770;9.200;2022-07-06T11:44:01;23.20;1.00
296;DHT22;132;48.770;9.200;2022-07-06T11:48:57;23.40;1.00
296;DHT22;132;48.770;9.200;2022-07-06T11:51:25;23.60;1.00
296;DHT22;132;48.770;9.200;2022-07-06T11:53:54;23.70;1.00
296;DHT22;132;48.770;9.200;2022-07-06T11:56:21;23.80;1.00
296;DHT22;132;48.770;9.200;2022-07-06T11:58:53;23.70;1.00
296;DHT22;132;48.770;9.200;2022-07-06T12:01:21;23.60;1.00
296;DHT22;132;48.770;9.200;2022-07-06T12:03:48;23.50;1.00
296;DHT22;132;48.770;9.200;2022-07-06T12:06:22;23.60;1.00
296;DHT22;132;48.770;9.200;2022-07-06T12:08:53;23.70;1.00
296;DHT22;132;48.770;9.200;2022-07-06T12:11:31;23.50;1.00
296;DHT22;132;48.770;9.200;2022-07-06T12:14:01;23.50;1.00
296;DHT22;132;48.770;9.200;2022-07-06T12:16:35;23.40;1.00
296;DHT22;132;48.770;9.200;2022-07-06T12:19:05;23.30;1.00
296;DHT22;132;48.770;9.200;2022-07-06T12:21:34;23.40;1.00
296;DHT22;132;48.770;9.200;2022-07-06T12:24:01;23.80;1.00
296;DHT22;132;48.770;9.200;2022-07-06T12:26:28;24.00;1.00
296;DHT22;132;48.770;9.200;2022-07-06T12:29:09;24.20;1.00
296;DHT22;132;48.770;9.200;2022-07-06T12:31:37;24.50;1.00
296;DHT22;132;48.770;9.200;2022-07-06T12:34:05;24.40;1.00
296;DHT22;132;48.770;9.200;2022-07-06T12:37:27;24.40;1.00
296;DHT22;132;48.770;9.200;2022-07-06T12:39:29;25.00;1.00
296;DHT22;132;48.770;9.200;2022-07-06T12:42:01;24.50;1.00
296;DHT22;132;48.770;9.200;2022-07-06T12:44:30;24.30;1.00
296;DHT22;132;48.770;9.200;2022-07-06T12:47:07;24.50;1.00
296;DHT22;132;48.770;9.200;2022-07-06T12:49:35;24.90;1.00
296;DHT22;132;48.770;9.200;2022-07-06T12:52:12;25.10;1.00
296;DHT22;132;48.770;9.200;2022-07-06T12:54:59;25.30;1.00
296;DHT22;132;48.770;9.200;2022-07-06T12:57:26;25.20;1.00
296;DHT22;132;48.770;9.200;2022-07-06T13:02:26;25.00;1.00
296;DHT22;132;48.770;9.200;2022-07-06T13:05:04;24.90;1.00
296;DHT22;132;48.770;9.200;2022-07-06T13:07:34;24.80;1.00
296;DHT22;132;48.770;9.200;2022-07-06T13:10:09;24.80;1.00
296;DHT22;132;48.770;9.200;2022-07-06T13:12:37;24.60;1.00
296;DHT22;132;48.770;9.200;2022-07-06T13:15:05;24.50;1.00
296;DHT22;132;48.770;9.200;2022-07-06T13:17:32;24.20;1.00
296;DHT22;132;48.770;9.200;2022-07-06T13:19:59;24.20;1.00
296;DHT22;132;48.770;9.200;2022-07-06T13:22:26;24.50;1.00
296;DHT22;132;48.770;9.200;2022-07-06T13:24:52;24.60;1.00
296;DHT22;132;48.770;9.200;2022-07-06T13:27:19;24.60;1.00
296;DHT22;132;48.770;9.200;2022-07-06T13:29:45;24.80;1.00
296;DHT22;132;48.770;9.200;2022-07-06T13:32:12;24.80;1.00
296;DHT22;132;48.770;9.200;2022-07-06T13:34:40;24.80;1.00
296;DHT22;132;48.770;9.200;2022-07-06T13:37:06;25.10;1.00
296;DHT22;132;48.770;9.200;2022-07-06T13:39:32;25.10;1.00
296;DHT22;132;48.770;9.200;2022-07-06T13:41:59;24.90;1.00
296;DHT22;132;48.770;9.200;2022-07-06T13:44:25;24.90;1.00
296;DHT22;132;48.770;9.200;2022-07-06T13:46:52;24.80;1.00
296;DHT22;132;48.770;9.200;2022-07-06T13:49:18;24.60;1.00
296;DHT22;132;48.770;9.200;2022-07-06T13:51:45;24.40;1.00
296;DHT22;132;48.770;9.200;2022-07-06T13:54:11;24.20;1.00
296;DHT22;132;48.770;9.200;2022-07-06T13:56:39;24.60;1.00
296;DHT22;132;48.770;9.200;2022-07-06T13:59:06;25.50;1.00
296;DHT22;132;48.770;9.200;2022-07-06T14:01:33;26.40;1.00
296;DHT22;132;48.770;9.200;2022-07-06T14:04:00;27.00;1.00
296;DHT22;132;48.770;9.200;2022-07-06T14:06:28;27.20;1.00
296;DHT22;132;48.770;9.200;2022-07-06T14:08:54;27.50;1.00
296;DHT22;132;48.770;9.200;2022-07-06T14:11:21;27.30;1.00
296;DHT22;132;48.770;9.200;2022-07-06T14:13:47;27.90;1.00
296;DHT22;132;48.770;9.200;2022-07-06T14:16:14;28.50;1.00
296;DHT22;132;48.770;9.200;2022-07-06T14:18:41;29.00;1.00
296;DHT22;132;48.770;9.200;2022-07-06T14:21:09;29.50;1.00
296;DHT22;132;48.770;9.200;2022-07-06T14:23:35;29.70;1.00
296;DHT22;132;48.770;9.200;2022-07-06T14:26:02;29.80;1.00
296;DHT22;132;48.770;9.200;2022-07-06T14:28:28;30.10;1.00
296;DHT22;132;48.770;9.200;2022-07-06T14:30:55;30.40;1.00
296;DHT22;132;48.770;9.200;2022-07-06T14:33:21;30.70;1.00
296;DHT22;132;48.770;9.200;2022-07-06T14:35:49;30.90;1.00
296;DHT22;132;48.770;9.200;2022-07-06T14:42:19;30.40;1.00
296;DHT22;132;48.770;9.200;2022-07-06T14:44:46;30.30;1.00
296;DHT22;132;48.770;9.200;2022-07-06T14:47:12;30.20;1.00
296;DHT22;132;48.770;9.200;2022-07-06T14:49:38;30.70;1.00
296;DHT22;132;48.770;9.200;2022-07-06T14:52:05;30.90;1.00
296;DHT22;132;48.770;9.200;2022-07-06T14:54:31;31.20;1.00
296;DHT22;132;48.770;9.200;2022-07-06T14:56:58;31.60;1.00
296;DHT22;132;48.770;9.200;2022-07-06T14:59:24;31.90;1.00
296;DHT22;132;48.770;9.200;2022-07-06T15:01:50;32.00;1.00
296;DHT22;132;48.770;9.200;2022-07-06T15:04:17;32.30;1.00
296;DHT22;132;48.770;9.200;2022-07-06T15:06:43;32.30;1.00
296;DHT22;132;48.770;9.200;2022-07-06T15:09:10;32.20;1.00
296;DHT22;132;48.770;9.200;2022-07-06T15:11:36;32.00;1.00
296;DHT22;132;48.770;9.200;2022-07-06T15:14:02;31.70;1.00
296;DHT22;132;48.770;9.200;2022-07-06T15:16:29;31.00;1.00
296;DHT22;132;48.770;9.200;2022-07-06T15:18:56;30.60;1.00
296;DHT22;132;48.770;9.200;2022-07-06T15:21:22;29.80;1.00
296;DHT22;132;48.770;9.200;2022-07-06T15:23:49;29.00;1.00
296;DHT22;132;48.770;9.200;2022-07-06T15:26:15;28.50;1.00
296;DHT22;132;48.770;9.200;2022-07-06T15:28:42;28.60;1.00
296;DHT22;132;48.770;9.200;2022-07-06T15:31:08;29.10;1.00
296;DHT22;132;48.770;9.200;2022-07-06T15:33:34;28.80;1.00
296;DHT22;132;48.770;9.200;2022-07-06T15:36:01;28.20;1.00
296;DHT22;132;48.770;9.200;2022-07-06T15:38:27;27.60;1.00
296;DHT22;132;48.770;9.200;2022-07-06T15:40:54;27.50;1.00
296;DHT22;132;48.770;9.200;2022-07-06T15:43:30;28.00;1.00
296;DHT22;132;48.770;9.200;2022-07-06T15:45:59;28.50;1.00
296;DHT22;132;48.770;9.200;2022-07-06T15:48:27;28.60;1.00
296;DHT22;132;48.770;9.200;2022-07-06T15:50:54;28.10;1.00
296;DHT22;132;48.770;9.200;2022-07-06T15:53:22;28.00;1.00
296;DHT22;132;48.770;9.200;2022-07-06T15:55:49;28.20;1.00
296;DHT22;132;48.770;9.200;2022-07-06T15:58:16;28.30;1.00
296;DHT22;132;48.770;9.200;2022-07-06T16:00:43;28.20;1.00
296;DHT22;132;48.770;9.200;2022-07-06T16:03:10;27.70;1.00
296;DHT22;132;48.770;9.200;2022-07-06T16:05:36;26.90;1.00
296;DHT22;132;48.770;9.200;2022-07-06T16:08:03;26.30;1.00
296;DHT22;132;48.770;9.200;2022-07-06T16:10:29;25.80;1.00
296;DHT22;132;48.770;9.200;2022-07-06T16:12:56;25.50;1.00
296;DHT22;132;48.770;9.200;2022-07-06T16:15:26;25.20;1.00
296;DHT22;132;48.770;9.200;2022-07-06T16:17:53;25.00;1.00
296;DHT22;132;48.770;9.200;2022-07-06T16:20:20;24.90;1.00
296;DHT22;132;48.770;9.200;2022-07-06T16:22:47;24.60;1.00
296;DHT22;132;48.770;9.200;2022-07-06T16:25:15;24.30;1.00
296;DHT22;132;48.770;9.200;2022-07-06T16:27:43;24.10;1.00
296;DHT22;132;48.770;9.200;2022-07-06T16:30:10;23.90;1.00
296;DHT22;132;48.770;9.200;2022-07-06T16:32:37;23.70;1.00
296;DHT22;132;48.770;9.200;2022-07-06T16:35:03;23.60;1.00
296;DHT22;132;48.770;9.200;2022-07-06T17:59:46;21.10;1.00
296;DHT22;132;48.770;9.200;2022-07-06T18:02:13;21.30;1.00
296;DHT22;132;48.770;9.200;2022-07-06T18:04:39;21.30;1.00
296;DHT22;132;48.770;9.200;2022-07-06T18:07:06;21.30;1.00
296;DHT22;132;48.770;9.200;2022-07-06T18:09:33;21.30;1.00
296;DHT22;132;48.770;9.200;2022-07-06T18:11:59;21.30;1.00
296;DHT22;132;48.770;9.200;2022-07-06T18:14:25;21.30;1.00
296;DHT22;132;48.770;9.200;2022-07-06T18:16:52;21.20;1.00
296;DHT22;132;48.770;9.200;2022-07-06T18:19:18;21.20;1.00
296;DHT22;132;48.770;9.200;2022-07-06T18:21:45;21.20;1.00
296;DHT22;132;48.770;9.200;2022-07-06T18:24:12;21.20;1.00
296;DHT22;132;48.770;9.200;2022-07-06T18:26:39;21.20;1.00
296;DHT22;132;48.770;9.200;2022-07-06T18:29:05;21.10;1.00
296;DHT22;132;48.770;9.200;2022-07-06T18:31:32;21.10;1.00
296;DHT22;132;48.770;9.200;2022-07-06T18:33:58;20.80;1.00
296;DHT22;132;48.770;9.200;2022-07-06T18:36:25;20.90;1.00
296;DHT22;132;48.770;9.200;2022-07-06T18:38:55;20.80;1.00
296;DHT22;132;48.770;9.200;2022-07-06T18:41:22;20.80;1.00
296;DHT22;132;48.770;9.200;2022-07-06T18:43:49;20.70;1.00
296;DHT22;132;48.770;9.200;2022-07-06T18:46:16;20.70;1.00